createdAt,value
2017-10-09T00:01:59.999Z,5.13
2017-10-09T00:04:26.202Z,4.97
2017-10-09T00:06:52.406Z,6.13
2017-10-09T00:09:18.947Z,7.23
2017-10-09T00:11:45.190Z,11.20
2017-10-09T00:14:11.362Z,9.80
2017-10-09T00:16:38.633Z,10.43
2017-10-09T00:19:05.534Z,11.60
2017-10-09T00:21:31.709Z,6.93
2017-10-09T00:23:58.973Z,9.30
2017-10-09T00:26:25.166Z,7.20
2017-10-09T00:28:51.370Z,6.27
2017-10-09T00:31:17.971Z,9.00
2017-10-09T00:33:44.194Z,5.13
2017-10-09T00:36:10.439Z,17.73
2017-10-09T00:38:36.976Z,5.70
2017-10-09T00:41:03.158Z,11.90
2017-10-09T00:43:30.116Z,6.73
2017-10-09T00:45:57.357Z,4.83
2017-10-09T00:48:24.355Z,10.60
2017-10-09T00:50:50.574Z,7.73
2017-10-09T00:53:17.053Z,11.13
2017-10-09T00:55:43.261Z,24.50
2017-10-09T00:58:09.579Z,4.47
2017-10-09T01:00:36.094Z,6.17
2017-10-09T01:03:02.289Z,5.43
2017-10-09T01:05:28.544Z,15.87
2017-10-09T01:07:55.125Z,5.77
2017-10-09T01:10:21.329Z,15.53
2017-10-09T01:12:47.538Z,7.07
2017-10-09T01:15:14.075Z,11.87
2017-10-09T01:17:40.269Z,10.00
2017-10-09T01:20:06.513Z,7.80
2017-10-09T01:22:33.820Z,6.20
2017-10-09T01:25:00.037Z,11.10
2017-10-09T01:27:26.265Z,9.33
2017-10-09T01:29:52.924Z,7.93
2017-10-09T01:32:19.122Z,7.97
2017-10-09T01:34:45.471Z,10.30
2017-10-09T01:37:11.956Z,8.50
2017-10-09T01:39:38.893Z,18.93
2017-10-09T01:42:05.845Z,9.50
2017-10-09T01:44:33.161Z,15.90
2017-10-09T01:46:59.349Z,10.13
2017-10-09T01:49:25.524Z,11.47
2017-10-09T01:51:52.026Z,23.50
2017-10-09T01:54:18.259Z,10.43
2017-10-09T01:56:44.469Z,9.73
2017-10-09T01:59:10.839Z,14.53
2017-10-09T02:01:37.069Z,13.50
2017-10-09T02:04:03.999Z,17.20
2017-10-09T02:06:30.497Z,13.23
2017-10-09T02:08:56.669Z,12.00
2017-10-09T02:11:22.864Z,11.43
2017-10-09T02:13:49.428Z,16.33
2017-10-09T02:16:15.627Z,16.97
2017-10-09T02:18:41.850Z,14.87
2017-10-09T02:21:08.428Z,16.23
2017-10-09T02:23:34.581Z,14.00
2017-10-09T02:26:00.752Z,13.40
2017-10-09T02:28:27.273Z,11.57
2017-10-09T02:30:53.431Z,22.30
2017-10-09T02:33:19.602Z,11.30
2017-10-09T02:35:46.931Z,14.80
2017-10-09T02:38:13.875Z,15.00
2017-10-09T02:40:40.034Z,14.60
2017-10-09T02:43:07.308Z,19.33
2017-10-09T02:45:33.538Z,13.70
2017-10-09T02:47:59.733Z,19.73
2017-10-09T02:50:27.063Z,14.23
2017-10-09T02:52:53.213Z,17.30
2017-10-09T02:55:20.135Z,15.20
2017-10-09T02:57:46.769Z,18.10
2017-10-09T03:00:13.067Z,14.10
2017-10-09T03:02:39.327Z,12.23
2017-10-09T03:05:05.865Z,15.67
2017-10-09T03:07:32.058Z,16.20
2017-10-09T03:09:58.261Z,22.73
2017-10-09T03:12:25.467Z,15.07
2017-10-09T03:14:51.662Z,15.10
2017-10-09T03:17:17.878Z,13.83
2017-10-09T03:19:44.427Z,15.77
2017-10-09T03:22:13.413Z,13.13
2017-10-09T03:27:53.746Z,13.90
2017-10-09T03:30:20.143Z,15.80
2017-10-09T03:32:46.427Z,20.43
2017-10-09T03:35:13.459Z,15.63
2017-10-09T03:37:40.076Z,14.90
2017-10-09T03:40:06.344Z,20.53
2017-10-09T03:42:33.246Z,14.20
2017-10-09T03:44:59.752Z,16.60
2017-10-09T03:47:25.941Z,13.47
2017-10-09T03:49:52.166Z,16.63
2017-10-09T03:52:19.458Z,14.67
2017-10-09T03:54:45.686Z,17.57
2017-10-09T03:57:11.966Z,14.30
2017-10-09T03:59:38.525Z,13.83
2017-10-09T04:02:05.460Z,13.77
2017-10-09T04:04:31.715Z,12.63
2017-10-09T04:06:58.404Z,30.20
2017-10-09T04:09:24.595Z,12.80
2017-10-09T04:11:50.841Z,14.47
2017-10-09T04:14:17.396Z,11.37
2017-10-09T04:16:43.649Z,12.30
2017-10-09T04:19:10.583Z,18.67
2017-10-09T04:21:37.256Z,13.27
2017-10-09T04:24:04.205Z,13.70
2017-10-09T04:26:31.165Z,16.70
2017-10-09T04:28:57.795Z,13.27
2017-10-09T04:31:24.068Z,14.97
2017-10-09T04:33:50.320Z,16.33
2017-10-09T04:36:16.937Z,12.37
2017-10-09T04:38:43.185Z,18.70
2017-10-09T04:41:09.473Z,16.53
2017-10-09T04:43:36.032Z,21.40
2017-10-09T04:46:02.317Z,15.63
2017-10-09T04:48:28.558Z,17.73
2017-10-09T04:50:55.091Z,17.60
2017-10-09T04:53:21.256Z,17.33
2017-10-09T04:55:47.438Z,14.50
2017-10-09T04:58:14.007Z,20.63
2017-10-09T05:00:40.249Z,13.90
2017-10-09T05:03:06.504Z,16.10
2017-10-09T05:05:33.690Z,13.10
2017-10-09T05:07:59.923Z,14.77
2017-10-09T05:10:26.284Z,20.27
2017-10-09T05:12:52.829Z,19.40
2017-10-09T05:15:19.032Z,18.83
2017-10-09T05:17:45.324Z,23.33
2017-10-09T05:20:11.921Z,20.10
2017-10-09T05:22:38.957Z,15.83
2017-10-09T05:25:05.158Z,16.60
2017-10-09T05:27:31.685Z,18.03
2017-10-09T05:29:57.901Z,17.97
2017-10-09T05:32:24.157Z,15.33
2017-10-09T05:34:50.503Z,17.80
2017-10-09T05:37:16.776Z,18.40
2017-10-09T05:39:43.751Z,12.53
2017-10-09T05:42:10.427Z,19.43
2017-10-09T05:44:36.709Z,18.67
2017-10-09T05:47:02.985Z,18.43
2017-10-09T05:49:29.495Z,14.50
2017-10-09T05:51:55.688Z,25.00
2017-10-09T05:54:22.973Z,13.83
2017-10-09T05:56:49.498Z,19.80
2017-10-09T05:59:15.650Z,15.10
2017-10-09T06:01:41.871Z,11.70
2017-10-09T06:04:08.208Z,14.00
2017-10-09T06:06:34.425Z,19.80
2017-10-09T06:09:00.604Z,22.13
2017-10-09T06:11:27.105Z,14.10
2017-10-09T06:13:53.344Z,17.97
2017-10-09T06:16:19.532Z,14.30
2017-10-09T06:18:46.071Z,14.87
2017-10-09T06:21:12.252Z,15.87
2017-10-09T06:23:38.412Z,19.30
2017-10-09T06:26:04.845Z,12.10
2017-10-09T06:28:31.098Z,12.27
2017-10-09T06:30:57.379Z,10.30
2017-10-09T06:33:23.954Z,10.20
2017-10-09T06:35:50.200Z,12.67
2017-10-09T06:38:16.381Z,10.10
2017-10-09T06:40:43.653Z,19.40
2017-10-09T06:43:09.892Z,13.80
2017-10-09T06:45:36.112Z,15.80
2017-10-09T06:48:02.586Z,15.37
2017-10-09T06:50:28.805Z,33.43
2017-10-09T06:52:54.989Z,13.23
2017-10-09T06:55:22.095Z,19.00
2017-10-09T06:57:48.299Z,10.17
2017-10-09T07:00:14.514Z,7.70
2017-10-09T07:02:41.085Z,11.57
2017-10-09T07:05:07.340Z,21.13
2017-10-09T07:07:34.325Z,12.70
2017-10-09T07:10:01.498Z,7.63
2017-10-09T07:12:27.701Z,9.50
2017-10-09T07:14:53.864Z,10.20
2017-10-09T07:17:20.520Z,12.80
2017-10-09T07:19:46.788Z,13.83
2017-10-09T07:22:13.005Z,10.87
2017-10-09T07:24:41.286Z,8.53
2017-10-09T07:27:07.537Z,11.13
2017-10-09T07:29:33.786Z,13.50
2017-10-09T07:32:00.545Z,9.83
2017-10-09T07:34:26.735Z,9.30
2017-10-09T07:36:52.972Z,9.00
2017-10-09T07:39:19.489Z,9.97
2017-10-09T07:41:45.710Z,9.97
2017-10-09T07:44:11.975Z,12.30
2017-10-09T07:46:38.328Z,18.63
2017-10-09T07:49:04.482Z,8.83
2017-10-09T07:51:32.429Z,7.40
2017-10-09T07:53:58.908Z,11.50
2017-10-09T07:56:25.148Z,20.50
2017-10-09T07:58:51.570Z,16.97
2017-10-09T08:01:18.117Z,7.73
2017-10-09T08:03:44.370Z,8.40
2017-10-09T08:06:11.401Z,14.30
2017-10-09T08:08:38.029Z,10.10
2017-10-09T08:11:04.266Z,9.23
2017-10-09T08:13:31.346Z,17.03
2017-10-09T08:15:57.840Z,10.77
2017-10-09T08:18:24.099Z,12.07
2017-10-09T08:20:50.386Z,8.93
2017-10-09T08:23:17.026Z,8.80
2017-10-09T08:25:45.492Z,8.03
2017-10-09T08:28:12.093Z,12.83
2017-10-09T08:30:38.582Z,10.50
2017-10-09T08:33:04.770Z,14.43
2017-10-09T08:35:32.327Z,12.27
2017-10-09T08:37:58.654Z,8.97
2017-10-09T08:40:24.891Z,21.43
2017-10-09T08:42:51.930Z,5.50
2017-10-09T08:47:50.905Z,9.07
2017-10-09T08:55:23.216Z,7.37
2017-10-09T08:57:49.482Z,10.97
2017-10-09T09:02:48.928Z,7.80
2017-10-09T09:10:20.925Z,7.73
2017-10-09T09:12:47.698Z,11.40
2017-10-09T09:20:18.284Z,4.20
2017-10-09T09:22:44.562Z,10.63
2017-10-09T09:25:11.055Z,13.33
2017-10-09T09:32:41.966Z,8.77
2017-10-09T09:40:13.111Z,9.17
2017-10-09T09:42:39.378Z,5.13
2017-10-09T09:45:05.646Z,11.20
2017-10-09T09:52:36.123Z,6.67
2017-10-09T09:55:02.369Z,6.70
2017-10-09T09:57:29.286Z,4.87
2017-10-09T09:59:55.733Z,7.40
2017-10-09T10:02:21.953Z,11.63
2017-10-09T10:04:48.257Z,7.53
2017-10-09T10:07:14.824Z,6.60
2017-10-09T10:09:41.072Z,8.93
2017-10-09T10:12:08.033Z,8.50
2017-10-09T10:14:35.226Z,11.30
2017-10-09T10:17:01.394Z,5.63
2017-10-09T10:19:27.627Z,3.13
2017-10-09T10:21:54.912Z,4.60
2017-10-09T10:24:21.118Z,15.67
2017-10-09T10:26:48.079Z,9.17
2017-10-09T10:29:14.455Z,7.93
2017-10-09T10:31:40.656Z,4.33
2017-10-09T10:34:07.012Z,4.87
2017-10-09T10:36:33.453Z,3.13
2017-10-09T10:38:59.653Z,4.33
2017-10-09T10:41:25.877Z,3.70
2017-10-09T10:43:52.243Z,8.97
2017-10-09T10:46:18.429Z,8.43
2017-10-09T10:48:44.577Z,7.90
2017-10-09T10:51:11.230Z,9.00
2017-10-09T10:53:37.391Z,6.93
2017-10-09T10:56:04.376Z,2.60
2017-10-09T10:58:30.862Z,7.27
2017-10-09T11:00:57.849Z,10.43
2017-10-09T11:03:24.040Z,4.53
2017-10-09T11:05:50.606Z,9.70
2017-10-09T11:08:17.251Z,5.33
2017-10-09T11:10:43.437Z,4.93
2017-10-09T11:13:10.392Z,7.70
2017-10-09T11:15:37.504Z,4.40
2017-10-09T11:18:03.690Z,5.60
2017-10-09T11:20:30.476Z,3.27
2017-10-09T11:22:57.989Z,3.13
2017-10-09T11:25:24.199Z,4.07
2017-10-09T11:27:51.136Z,3.67
2017-10-09T11:30:17.682Z,12.20
2017-10-09T11:32:44.586Z,1.87
2017-10-09T11:35:10.771Z,3.13
2017-10-09T11:37:37.110Z,8.87
2017-10-09T11:40:03.352Z,3.77
2017-10-09T11:42:29.572Z,5.20
2017-10-09T11:44:56.310Z,3.97
2017-10-09T11:47:22.540Z,4.40
2017-10-09T11:49:48.718Z,6.10
2017-10-09T11:52:15.203Z,2.93
2017-10-09T11:54:41.445Z,5.80
2017-10-09T11:57:07.639Z,5.97
2017-10-09T11:59:34.239Z,3.63
2017-10-09T12:02:00.441Z,9.30
2017-10-09T12:04:26.605Z,3.07
2017-10-09T12:06:53.224Z,6.93
2017-10-09T12:09:19.532Z,7.33
2017-10-09T12:11:45.733Z,4.93
2017-10-09T12:14:12.109Z,3.53
2017-10-09T12:16:38.302Z,3.93
2017-10-09T12:19:04.474Z,9.93
2017-10-09T12:21:30.805Z,4.40
2017-10-09T12:23:57.059Z,8.63
2017-10-09T12:26:24.432Z,2.20
2017-10-09T12:28:50.805Z,5.63
2017-10-09T12:31:17.028Z,9.63
2017-10-09T12:33:43.249Z,2.23
2017-10-09T12:36:09.704Z,3.33
2017-10-09T12:38:35.869Z,11.93
2017-10-09T12:41:02.765Z,4.80
2017-10-09T12:43:29.116Z,7.90
2017-10-09T12:45:55.378Z,3.50
2017-10-09T12:48:21.706Z,6.43
2017-10-09T12:50:48.072Z,3.20
2017-10-09T12:53:14.313Z,7.40
2017-10-09T12:55:40.580Z,3.90
2017-10-09T12:58:07.910Z,3.20
2017-10-09T13:00:34.118Z,4.13
2017-10-09T13:03:00.274Z,7.13
2017-10-09T13:05:26.656Z,5.90
2017-10-09T13:07:52.844Z,2.67
2017-10-09T13:10:19.067Z,2.07
2017-10-09T13:12:45.662Z,2.60
2017-10-09T13:15:11.865Z,2.70
2017-10-09T13:17:38.089Z,1.93
2017-10-09T13:20:04.470Z,7.77
2017-10-09T13:22:30.617Z,3.77
2017-10-09T13:24:56.921Z,1.93
2017-10-09T13:27:23.432Z,3.10
2017-10-09T13:29:49.694Z,3.73
2017-10-09T13:32:15.964Z,2.00
2017-10-09T13:34:43.081Z,2.83
2017-10-09T13:37:09.307Z,2.30
2017-10-09T13:39:35.590Z,2.63
2017-10-09T13:42:02.234Z,3.80
2017-10-09T13:44:29.154Z,3.90
2017-10-09T13:49:28.270Z,4.37
2017-10-09T13:54:26.385Z,4.23
2017-10-09T14:01:57.025Z,5.40
2017-10-09T14:04:23.306Z,3.77
2017-10-09T14:09:21.662Z,9.03
2017-10-09T14:14:20.650Z,3.00
2017-10-09T14:16:47.676Z,8.77
2017-10-09T14:21:45.802Z,5.23
2017-10-09T14:24:12.300Z,5.20
2017-10-09T14:26:38.527Z,6.10
2017-10-09T14:41:23.045Z,4.93
2017-10-09T14:43:49.385Z,4.70
2017-10-09T14:46:15.709Z,6.57
2017-10-09T14:48:41.941Z,9.50
2017-10-09T14:51:08.304Z,8.40
2017-10-09T14:53:34.590Z,3.20
2017-10-09T14:56:00.839Z,6.80
2017-10-09T14:58:27.054Z,6.47
2017-10-09T15:00:53.339Z,3.70
2017-10-09T15:03:19.611Z,10.03
2017-10-09T15:05:45.874Z,5.40
2017-10-09T15:08:13.011Z,4.80
2017-10-09T15:10:39.992Z,5.50
2017-10-09T15:13:06.233Z,4.27
2017-10-09T15:15:32.514Z,4.63
2017-10-09T15:17:58.802Z,5.97
2017-10-09T15:20:25.108Z,12.10
2017-10-09T15:22:51.422Z,6.13
2017-10-09T15:25:18.435Z,6.47
2017-10-09T15:27:44.683Z,6.40
2017-10-09T15:30:11.005Z,7.77
2017-10-09T15:32:37.291Z,5.00
2017-10-09T15:35:03.559Z,5.73
2017-10-09T15:37:29.816Z,6.53
2017-10-09T15:39:56.783Z,7.30
2017-10-09T15:42:23.090Z,5.97
2017-10-09T15:44:50.152Z,8.40
2017-10-09T15:47:17.078Z,6.60
2017-10-09T15:49:44.051Z,26.90
2017-10-09T15:52:10.315Z,5.53
2017-10-09T15:54:36.598Z,6.70
2017-10-09T15:57:02.892Z,5.90
2017-10-09T15:59:29.189Z,20.63
2017-10-09T16:01:55.521Z,11.97
2017-10-09T16:04:21.801Z,14.83
2017-10-09T16:06:49.147Z,16.70
2017-10-09T16:09:15.395Z,7.47
2017-10-09T16:11:42.335Z,10.13
2017-10-09T16:14:08.709Z,6.97
2017-10-09T16:16:34.970Z,7.17
2017-10-09T16:19:01.252Z,7.60
2017-10-09T16:21:27.578Z,6.60
2017-10-09T16:23:53.852Z,7.50
2017-10-09T16:26:20.164Z,7.40
2017-10-09T16:28:46.480Z,7.30
2017-10-09T16:31:12.735Z,5.40
2017-10-09T16:33:39.054Z,8.53
2017-10-09T16:36:05.375Z,10.50
2017-10-09T16:38:31.683Z,8.93
2017-10-09T16:40:57.969Z,7.70
2017-10-09T16:43:24.234Z,7.83
2017-10-09T16:45:51.244Z,8.33
2017-10-09T16:48:17.505Z,7.90
2017-10-09T16:50:44.542Z,8.93
2017-10-09T16:53:10.859Z,8.87
2017-10-09T16:55:37.058Z,8.77
2017-10-09T16:58:03.436Z,11.20
2017-10-09T17:00:29.720Z,7.03
2017-10-09T17:02:56.035Z,8.60
2017-10-09T17:05:22.312Z,9.10
2017-10-09T17:07:48.635Z,7.50
2017-10-09T17:10:14.900Z,10.27
2017-10-09T17:12:42.079Z,13.90
2017-10-09T17:15:08.640Z,10.43
2017-10-09T17:17:34.927Z,8.87
2017-10-09T17:20:01.437Z,12.53
2017-10-09T17:22:27.785Z,17.83
2017-10-09T17:24:55.599Z,12.03
2017-10-09T17:27:21.919Z,10.53
2017-10-09T17:29:48.155Z,15.30
2017-10-09T17:32:14.535Z,11.13
2017-10-09T17:34:40.869Z,10.10
2017-10-09T17:37:07.922Z,18.57
2017-10-09T17:39:35.015Z,11.70
2017-10-09T17:42:01.309Z,7.70
2017-10-09T17:44:27.726Z,9.40
2017-10-09T17:46:54.811Z,13.90
2017-10-09T17:49:21.107Z,9.83
2017-10-09T17:51:48.051Z,10.07
2017-10-09T17:54:15.374Z,10.80
2017-10-09T17:56:41.822Z,10.80
2017-10-09T17:59:08.854Z,10.10
2017-10-09T18:01:35.234Z,11.43
2017-10-09T18:04:01.743Z,14.30
2017-10-09T18:06:28.051Z,11.00
2017-10-09T18:08:54.287Z,14.10
2017-10-09T18:11:20.620Z,12.70
2017-10-09T18:13:46.929Z,12.20
2017-10-09T18:16:13.147Z,16.77
2017-10-09T18:18:39.439Z,14.33
2017-10-09T18:21:06.465Z,20.27
2017-10-09T18:23:33.511Z,10.77
2017-10-09T18:25:59.870Z,13.37
2017-10-09T18:28:27.130Z,12.70
2017-10-09T18:30:53.466Z,17.37
2017-10-09T18:33:19.858Z,16.00
2017-10-09T18:35:47.290Z,11.97
2017-10-09T18:38:14.865Z,14.83
2017-10-09T18:40:42.390Z,14.10
2017-10-09T18:43:12.968Z,13.27
2017-10-09T18:45:39.331Z,15.27
2017-10-09T18:48:06.041Z,12.33
2017-10-09T18:50:33.058Z,11.50
2017-10-09T18:52:59.416Z,21.67
2017-10-09T18:55:26.876Z,17.77
2017-10-09T18:57:54.283Z,18.17
2017-10-09T19:00:21.051Z,20.97
2017-10-09T19:02:47.845Z,15.90
2017-10-09T19:05:15.357Z,15.60
2017-10-09T19:07:42.394Z,15.30
2017-10-09T19:10:09.154Z,14.00
2017-10-09T19:12:35.485Z,21.73
2017-10-09T19:15:02.847Z,15.67
2017-10-09T19:17:29.998Z,16.33
2017-10-09T19:19:56.587Z,16.90
2017-10-09T19:22:22.919Z,19.20
2017-10-09T19:24:49.524Z,32.57
2017-10-09T19:27:15.771Z,16.33
2017-10-09T19:29:42.100Z,19.37
2017-10-09T19:32:08.802Z,23.07
2017-10-09T19:34:35.819Z,13.20
2017-10-09T19:37:02.163Z,19.10
2017-10-09T19:39:28.812Z,15.30
2017-10-09T19:41:55.125Z,11.07
2017-10-09T19:44:22.932Z,16.40
2017-10-09T19:46:49.779Z,12.87
2017-10-09T19:49:16.639Z,13.70
2017-10-09T19:51:44.628Z,15.30
2017-10-09T19:54:11.348Z,14.57
2017-10-09T19:56:37.687Z,12.63
2017-10-09T19:59:04.056Z,16.13
2017-10-09T20:01:30.696Z,11.30
2017-10-09T20:03:56.931Z,12.10
2017-10-09T20:06:23.967Z,14.13
2017-10-09T20:08:50.575Z,15.00
2017-10-09T20:11:16.842Z,16.23
2017-10-09T20:13:43.125Z,14.07
2017-10-09T20:16:09.819Z,16.23
2017-10-09T20:18:36.883Z,12.77
2017-10-09T20:21:03.900Z,13.03
2017-10-09T20:23:30.501Z,18.30
2017-10-09T20:25:56.830Z,13.10
2017-10-09T20:28:23.120Z,16.37
2017-10-09T20:30:50.518Z,11.70
2017-10-09T20:33:16.830Z,12.03
2017-10-09T20:35:43.123Z,14.53
2017-10-09T20:38:10.620Z,16.57
2017-10-09T20:40:36.929Z,15.57
2017-10-09T20:43:03.955Z,12.47
2017-10-09T20:45:30.640Z,20.63
2017-10-09T20:47:56.962Z,16.03
2017-10-09T20:50:23.263Z,14.20
2017-10-09T20:52:50.651Z,14.83
2017-10-09T20:55:16.947Z,19.80
2017-10-09T20:57:43.991Z,13.53
2017-10-09T21:00:10.637Z,21.60
2017-10-09T21:02:36.855Z,21.30
2017-10-09T21:05:03.183Z,19.40
2017-10-09T21:07:29.887Z,15.10
2017-10-09T21:09:56.144Z,15.40
2017-10-09T21:12:22.415Z,14.73
2017-10-09T21:14:49.033Z,14.17
2017-10-09T21:17:16.046Z,18.50
2017-10-09T21:19:42.299Z,15.70
2017-10-09T21:22:08.910Z,16.13
2017-10-09T21:24:35.155Z,16.60
2017-10-09T21:27:01.380Z,16.87
2017-10-09T21:29:28.086Z,14.43
2017-10-09T21:31:54.413Z,17.97
2017-10-09T21:34:20.676Z,15.00
2017-10-09T21:36:47.283Z,19.77
2017-10-09T21:39:13.535Z,18.00
2017-10-09T21:41:39.857Z,19.77
2017-10-09T21:44:06.522Z,20.53
2017-10-09T21:46:32.748Z,14.47
2017-10-09T21:48:58.998Z,17.57
2017-10-09T21:51:26.383Z,18.20
2017-10-09T21:53:52.646Z,15.33
2017-10-09T21:56:18.914Z,12.90
2017-10-09T21:58:46.195Z,16.00
2017-10-09T22:01:12.489Z,15.17
2017-10-09T22:03:39.538Z,20.07
2017-10-09T22:06:06.925Z,15.07
2017-10-09T22:08:33.194Z,19.63
2017-10-09T22:10:59.458Z,14.87
2017-10-09T22:13:26.941Z,12.53
2017-10-09T22:15:53.198Z,14.80
2017-10-09T22:18:19.404Z,17.20
2017-10-09T22:20:46.133Z,14.93
2017-10-09T22:23:12.415Z,17.57
2017-10-09T22:25:38.687Z,13.30
2017-10-09T22:28:05.342Z,19.20
2017-10-09T22:30:31.696Z,14.20
2017-10-09T22:32:58.023Z,13.73
2017-10-09T22:35:24.745Z,17.33
2017-10-09T22:37:51.036Z,16.37
2017-10-09T22:40:17.271Z,16.17
2017-10-09T22:42:44.762Z,15.00
2017-10-09T22:45:11.045Z,17.80
2017-10-09T22:47:37.306Z,12.60
2017-10-09T22:50:04.010Z,16.57
2017-10-09T22:52:30.991Z,17.83
2017-10-09T22:54:57.280Z,16.97
2017-10-09T22:57:23.927Z,17.03
2017-10-09T22:59:50.179Z,20.60
2017-10-09T23:02:17.166Z,16.00
2017-10-09T23:04:43.805Z,16.00
2017-10-09T23:07:10.088Z,16.80
2017-10-09T23:09:37.115Z,18.13
2017-10-09T23:12:03.758Z,15.17
2017-10-09T23:14:30.002Z,31.63
2017-10-09T23:16:56.992Z,16.90
2017-10-09T23:19:23.715Z,19.10
2017-10-09T23:21:50.004Z,17.40
2017-10-09T23:24:16.220Z,15.70
2017-10-09T23:26:42.866Z,20.73
2017-10-09T23:29:09.170Z,17.87
2017-10-09T23:31:35.479Z,16.00
2017-10-09T23:34:02.206Z,18.37
2017-10-09T23:36:28.450Z,20.57
2017-10-09T23:38:54.734Z,17.03
2017-10-09T23:41:22.119Z,26.40
2017-10-09T23:43:48.369Z,21.93
2017-10-09T23:46:14.601Z,17.43
2017-10-09T23:48:41.315Z,21.17
2017-10-09T23:51:07.636Z,17.63
2017-10-09T23:53:33.890Z,21.17
2017-10-09T23:56:00.575Z,22.33
2017-10-09T23:58:26.831Z,20.00
